Time;durP1;ratioP1;P1;durP2;ratioP2;P2;SDS_P1;SDS_P2;PMS_P1;PMS_P2;Temp;Humidity;BMP_temperature;BMP_pressure;BME280_temperature;BME280_humidity;BME280_pressure;Samples;Min_cycle;Max_cycle;Signal;HPM_P1;HPM_P2
2023/04/29 00:01:20;;;;;;;0.70;0.70;;;;;;;9.97;86.05;99627.69;5050543;28;20247;-59
2023/04/29 00:03:48;;;;;;;0.70;0.70;;;;;;;9.87;87.21;99633.91;5049253;28;20230;-59
2023/04/29 00:06:15;;;;;;;0.60;0.60;;;;;;;9.89;87.33;99629.59;5049161;28;20201;-59
2023/04/29 00:08:42;;;;;;;0.53;0.53;;;;;;;9.91;86.79;99634.69;5050032;28;20611;-59
2023/04/29 00:11:10;;;;;;;0.50;0.50;;;;;;;9.91;87.25;99635.53;5050663;28;20197;-59
2023/04/29 00:13:37;;;;;;;0.50;0.50;;;;;;;9.83;86.70;99608.41;5050643;28;20291;-59
2023/04/29 00:16:06;;;;;;;0.70;0.70;;;;;;;9.89;86.77;99637.25;5050115;28;20283;-59
2023/04/29 00:18:33;;;;;;;0.70;0.70;;;;;;;9.84;86.88;99628.88;5050832;28;20213;-59
2023/04/29 00:21:00;;;;;;;0.57;0.57;;;;;;;9.82;86.92;99634.91;5049259;28;20213;-59
2023/04/29 00:23:26;;;;;;;0.60;0.60;;;;;;;9.74;87.03;99621.44;5049445;28;20201;-59
2023/04/29 00:25:55;;;;;;;0.63;0.63;;;;;;;9.80;87.27;99631.53;5048051;28;20200;-59
2023/04/29 00:28:22;;;;;;;0.63;0.63;;;;;;;9.76;87.52;99627.34;5047315;28;20204;-59
2023/04/29 00:30:48;;;;;;;0.60;0.60;;;;;;;9.68;87.92;99631.81;5048773;28;20296;-59
2023/04/29 00:33:16;;;;;;;0.50;0.50;;;;;;;9.61;88.72;99636.22;5046987;28;20212;-59
2023/04/29 00:35:43;;;;;;;0.80;0.80;;;;;;;9.60;88.83;99634.53;5049898;28;20197;-59
2023/04/29 00:38:10;;;;;;;0.60;0.60;;;;;;;9.59;88.71;99632.03;5050745;28;20258;-59
2023/04/29 00:40:37;;;;;;;0.70;0.70;;;;;;;9.47;89.45;99633.97;5046707;28;20220;-59
2023/04/29 00:43:03;;;;;;;0.57;0.57;;;;;;;9.33;89.44;99625.78;5049832;28;20250;-59
2023/04/29 00:45:30;;;;;;;0.60;0.60;;;;;;;9.34;89.94;99631.69;5046322;28;20209;-59
2023/04/29 00:47:57;;;;;;;0.50;0.50;;;;;;;9.33;89.61;99640.28;5047773;28;20204;-59
2023/04/29 00:50:25;;;;;;;0.70;0.70;;;;;;;9.35;89.64;99643.63;5047760;28;20200;-59
2023/04/29 00:52:52;;;;;;;0.50;0.50;;;;;;;9.39;89.43;99632.47;5047082;28;20193;-59
2023/04/29 00:55:19;;;;;;;0.80;0.80;;;;;;;9.36;89.54;99635.94;5050317;28;20557;-59
2023/04/29 00:57:48;;;;;;;0.60;0.60;;;;;;;9.21;89.54;99620.06;5049961;28;20251;-59
2023/04/29 01:00:16;;;;;;;0.60;0.60;;;;;;;9.24;89.44;99625.94;5046824;28;20282;-59
2023/04/29 01:02:43;;;;;;;0.50;0.50;;;;;;;9.17;89.78;99629.53;5049999;28;20205;-59
2023/04/29 01:05:10;;;;;;;0.70;0.70;;;;;;;9.18;89.57;99626.06;5049995;28;20232;-59
2023/04/29 01:07:45;;;;;;;0.60;0.60;;;;;;;9.17;89.62;99624.41;5050249;28;20629;-59
2023/04/29 01:10:16;;;;;;;0.53;0.53;;;;;;;9.16;89.54;99627.84;5047797;28;20196;-59
2023/04/29 01:12:46;;;;;;;0.70;0.70;;;;;;;9.14;89.71;99627.03;5050661;28;20665;-59
2023/04/29 01:15:21;;;;;;;0.60;0.60;;;;;;;9.14;89.65;99619.38;5049354;28;20222;-59
2023/04/29 01:17:51;;;;;;;0.90;0.90;;;;;;;9.14;89.85;99627.03;5049309;28;20230;-59
2023/04/29 01:20:20;;;;;;;0.50;0.50;;;;;;;9.13;89.51;99633.00;5048123;28;20279;-59
2023/04/29 01:22:48;;;;;;;0.57;0.57;;;;;;;9.12;89.36;99623.66;5048729;28;20196;-59
2023/04/29 01:25:16;;;;;;;0.63;0.63;;;;;;;9.10;89.06;99616.88;5048207;28;20192;-59
2023/04/29 01:27:52;;;;;;;0.50;0.50;;;;;;;9.09;88.88;99616.03;5049055;28;20660;-59
2023/04/29 01:30:31;;;;;;;0.60;0.60;;;;;;;9.08;88.88;99619.47;5049978;28;20192;-59
2023/04/29 01:33:03;;;;;;;0.63;0.63;;;;;;;9.03;88.70;99608.50;5049139;28;20197;-59
2023/04/29 01:35:44;;;;;;;0.50;0.50;;;;;;;9.00;89.23;99608.56;5044785;28;20197;-59
2023/04/29 01:38:23;;;;;;;0.60;0.60;;;;;;;8.98;89.03;99606.91;5048351;28;20197;-59
2023/04/29 01:41:03;;;;;;;0.50;0.50;;;;;;;8.82;88.63;99596.16;5050098;28;20208;-59
2023/04/29 01:43:33;;;;;;;0.60;0.60;;;;;;;8.81;89.24;99602.97;5046100;28;20200;-59
2023/04/29 01:46:03;;;;;;;0.73;0.73;;;;;;;8.77;89.01;99603.91;5049124;28;20205;-59
2023/04/29 01:48:30;;;;;;;0.60;0.60;;;;;;;8.75;89.22;99609.94;5049790;28;20299;-59
2023/04/29 01:50:56;;;;;;;0.50;0.50;;;;;;;8.67;89.10;99607.50;5048637;28;20189;-59
2023/04/29 01:53:23;;;;;;;0.50;0.50;;;;;;;8.64;89.32;99606.72;5054631;28;20274;-59
2023/04/29 01:55:51;;;;;;;0.50;0.50;;;;;;;8.59;89.21;99596.59;5054506;28;20196;-59
2023/04/29 01:58:18;;;;;;;0.70;0.70;;;;;;;8.59;89.63;99603.44;5054432;28;20196;-59
2023/04/29 02:00:45;;;;;;;0.57;0.57;;;;;;;8.58;89.54;99604.28;5049385;28;20217;-59
2023/04/29 02:03:11;;;;;;;0.50;0.50;;;;;;;8.54;89.46;99607.75;5054004;28;20247;-59
2023/04/29 02:05:38;;;;;;;0.60;0.60;;;;;;;8.54;89.79;99612.88;5047690;28;20201;-59
2023/04/29 02:08:06;;;;;;;0.63;0.63;;;;;;;8.51;89.59;99600.16;5053980;28;20553;-59
2023/04/29 02:10:33;;;;;;;0.60;0.60;;;;;;;8.52;89.82;99606.97;5054350;28;20258;-59
2023/04/29 02:13:01;;;;;;;0.80;0.80;;;;;;;8.53;89.62;99606.91;5053084;28;20200;-59
2023/04/29 02:15:28;;;;;;;0.50;0.50;;;;;;;8.55;89.86;99609.47;5049579;28;20197;-59
2023/04/29 02:17:55;;;;;;;0.60;0.60;;;;;;;8.53;89.76;99608.66;5053036;28;20197;-59
2023/04/29 02:20:22;;;;;;;0.60;0.60;;;;;;;8.50;89.83;99609.53;5053559;28;20270;-59
2023/04/29 02:22:48;;;;;;;0.70;0.70;;;;;;;8.47;89.75;99613.84;5053959;28;20271;-59
2023/04/29 02:25:16;;;;;;;0.60;0.60;;;;;;;8.41;89.87;99602.88;5053996;28;20197;-59
2023/04/29 02:27:43;;;;;;;0.70;0.70;;;;;;;8.39;89.71;99602.09;5053716;28;20207;-59
2023/04/29 02:30:11;;;;;;;0.60;0.60;;;;;;;8.37;90.42;99598.69;5052710;28;20201;-59
2023/04/29 02:32:38;;;;;;;0.70;0.70;;;;;;;8.33;90.29;99603.91;5050694;28;20632;-59
2023/04/29 02:35:07;;;;;;;0.60;0.60;;;;;;;8.30;90.29;99599.66;5051236;28;20204;-59
2023/04/29 02:37:34;;;;;;;0.60;0.60;;;;;;;8.22;90.54;99583.63;5051931;28;20382;-59
2023/04/29 02:40:02;;;;;;;0.63;0.63;;;;;;;8.26;89.98;99590.38;5053508;28;20240;-59
2023/04/29 02:42:29;;;;;;;0.60;0.60;;;;;;;8.22;90.00;99585.31;5053659;28;20201;-59
2023/04/29 02:44:55;;;;;;;0.50;0.50;;;;;;;8.24;89.96;99592.09;5053061;28;20197;-59
2023/04/29 02:47:23;;;;;;;0.50;0.50;;;;;;;8.21;90.16;99587.03;5049682;28;20206;-59
2023/04/29 02:49:50;;;;;;;0.60;0.60;;;;;;;8.21;89.93;99597.25;5052774;28;20270;-58
2023/04/29 02:52:17;;;;;;;0.50;0.50;;;;;;;8.22;89.47;99593.00;5052897;28;20204;-59
2023/04/29 02:54:44;;;;;;;0.60;0.60;;;;;;;8.17;89.50;99605.84;5052747;28;20387;-59
2023/04/29 02:57:11;;;;;;;0.70;0.70;;;;;;;8.12;89.64;99606.78;5051102;28;20200;-59
2023/04/29 02:59:38;;;;;;;0.80;0.80;;;;;;;8.06;89.86;99612.84;5050803;28;20197;-59
2023/04/29 03:02:05;;;;;;;0.50;0.50;;;;;;;8.03;90.58;99601.84;5053050;28;20247;-59
2023/04/29 03:04:33;;;;;;;0.50;0.50;;;;;;;8.02;90.67;99593.34;5050153;28;20233;-59
2023/04/29 03:06:59;;;;;;;0.60;0.60;;;;;;;8.01;90.77;99604.44;5050876;28;20235;-59
2023/04/29 03:09:26;;;;;;;0.73;0.73;;;;;;;7.96;90.51;99600.25;5052326;28;20280;-58
2023/04/29 03:11:53;;;;;;;0.63;0.63;;;;;;;7.94;89.75;99597.75;5051203;28;20203;-59
2023/04/29 03:14:20;;;;;;;0.60;0.60;;;;;;;7.90;89.60;99593.53;5049714;28;20201;-58
2023/04/29 03:16:46;;;;;;;0.60;0.60;;;;;;;7.81;90.14;99583.50;5048104;28;20209;-59
2023/04/29 03:19:13;;;;;;;0.53;0.53;;;;;;;7.88;90.19;99606.31;5049266;28;20258;-59
2023/04/29 03:21:41;;;;;;;0.60;0.60;;;;;;;7.87;90.19;99611.47;5052431;28;20314;-58
2023/04/29 03:24:08;;;;;;;0.57;0.57;;;;;;;7.87;90.12;99611.47;5044492;28;20197;-59
2023/04/29 03:26:34;;;;;;;0.50;0.50;;;;;;;7.73;90.61;99608.28;5052360;28;20212;-59
2023/04/29 03:29:01;;;;;;;0.60;0.60;;;;;;;7.78;90.70;99609.06;5047893;28;20212;-59
2023/04/29 03:31:28;;;;;;;0.60;0.60;;;;;;;7.80;91.45;99614.97;5052133;28;20222;-59
2023/04/29 03:33:54;;;;;;;0.70;0.70;;;;;;;7.80;91.79;99620.06;5052311;28;20236;-59
2023/04/29 03:36:21;;;;;;;0.60;0.60;;;;;;;7.76;91.91;99598.84;5051660;28;20208;-58
2023/04/29 03:38:49;;;;;;;0.70;0.70;;;;;;;7.88;91.74;99613.97;5052257;28;20208;-58
2023/04/29 03:41:16;;;;;;;0.70;0.70;;;;;;;7.93;91.98;99611.34;5049442;28;20274;-58
2023/04/29 03:43:43;;;;;;;0.50;0.50;;;;;;;7.98;91.81;99622.31;5051859;28;20200;-59
2023/04/29 03:46:10;;;;;;;0.80;0.80;;;;;;;8.02;91.58;99621.41;5052130;28;20201;-59
2023/04/29 03:48:37;;;;;;;0.50;0.50;;;;;;;8.06;91.89;99628.16;5052082;28;20204;-59
2023/04/29 03:51:04;;;;;;;0.60;0.60;;;;;;;8.11;90.92;99634.03;5045499;28;20197;-59
2023/04/29 03:53:31;;;;;;;0.60;0.60;;;;;;;8.12;90.94;99633.16;5050895;28;20234;-59
2023/04/29 03:55:59;;;;;;;0.80;0.80;;;;;;;8.18;91.57;99638.16;5044063;28;20209;-59
2023/04/29 03:58:28;;;;;;;0.50;0.50;;;;;;;8.15;91.76;99630.56;5051466;28;20270;-59
2023/04/29 04:00:55;;;;;;;0.70;0.70;;;;;;;8.36;91.82;99647.28;5051265;28;20224;-59
2023/04/29 04:03:24;;;;;;;0.50;0.50;;;;;;;8.41;91.00;99641.22;5048800;28;20223;-59
2023/04/29 04:05:51;;;;;;;0.77;0.77;;;;;;;8.42;90.90;99648.00;5051390;28;20208;-58
2023/04/29 04:08:17;;;;;;;0.60;0.60;;;;;;;8.44;91.59;99648.81;5050914;28;20205;-59
2023/04/29 04:10:44;;;;;;;0.50;0.50;;;;;;;8.42;92.09;99652.28;5051439;28;20250;-59
2023/04/29 04:13:13;;;;;;;0.60;0.60;;;;;;;8.43;92.94;99654.78;5051330;28;20618;-59
2023/04/29 04:15:41;;;;;;;0.80;0.80;;;;;;;8.41;93.11;99653.97;5048911;28;20208;-59
2023/04/29 04:18:07;;;;;;;0.73;0.73;;;;;;;8.40;93.60;99654.84;5048364;28;20205;-59
2023/04/29 04:20:37;;;;;;;0.83;0.83;;;;;;;8.34;94.01;99654.09;5049060;28;20225;-59
2023/04/29 04:23:04;;;;;;;0.80;0.80;;;;;;;8.29;94.49;99651.66;5050153;28;20283;-59
2023/04/29 04:25:30;;;;;;;0.50;0.50;;;;;;;8.22;95.50;99650.03;5045866;28;20660;-59
2023/04/29 04:27:57;;;;;;;0.80;0.80;;;;;;;8.24;96.12;99650.81;5050200;28;20580;-58
2023/04/29 04:30:26;;;;;;;0.70;0.70;;;;;;;8.27;97.28;99648.22;5049485;28;20224;-59
2023/04/29 04:32:52;;;;;;;0.50;0.50;;;;;;;8.35;97.97;99646.44;5051768;28;20676;-59
2023/04/29 04:35:19;;;;;;;0.80;0.80;;;;;;;8.53;98.56;99652.09;5051287;28;20201;-59
2023/04/29 04:37:46;;;;;;;0.60;0.60;;;;;;;8.69;97.72;99645.84;5051153;28;20580;-59
2023/04/29 04:40:13;;;;;;;0.70;0.70;;;;;;;8.82;95.40;99642.19;5048615;28;20295;-59
2023/04/29 04:42:40;;;;;;;0.60;0.60;;;;;;;8.95;94.08;99651.25;5045782;28;20209;-59
2023/04/29 04:45:08;;;;;;;0.90;0.90;;;;;;;9.02;93.17;99660.50;5045748;28;20259;-59
2023/04/29 04:47:36;;;;;;;0.63;0.63;;;;;;;9.05;92.97;99657.06;5048560;28;20660;-59
2023/04/29 04:50:04;;;;;;;0.70;0.70;;;;;;;8.99;93.42;99665.69;5048868;28;20640;-58
2023/04/29 04:52:30;;;;;;;0.57;0.57;;;;;;;8.98;94.41;99661.47;5049005;28;20200;-59
2023/04/29 04:54:57;;;;;;;0.77;0.77;;;;;;;8.99;94.56;99665.69;5048881;28;20255;-59
2023/04/29 04:57:24;;;;;;;0.60;0.60;;;;;;;8.98;95.11;99664.00;5050523;28;20197;-59
2023/04/29 04:59:51;;;;;;;0.70;0.70;;;;;;;9.02;95.65;99665.63;5049963;28;20289;-59
2023/04/29 05:02:18;;;;;;;0.60;0.60;;;;;;;8.97;95.81;99662.31;5049846;28;20228;-59
2023/04/29 05:04:46;;;;;;;0.60;0.60;;;;;;;9.08;96.05;99680.84;5047419;28;20228;-59
2023/04/29 05:07:12;;;;;;;0.67;0.67;;;;;;;9.23;96.44;99674.59;5043402;28;20204;-59
2023/04/29 05:09:39;;;;;;;0.60;0.60;;;;;;;9.34;94.00;99681.16;5047981;28;20663;-59
2023/04/29 05:12:06;;;;;;;0.50;0.50;;;;;;;9.38;92.95;99680.22;5047837;28;20193;-59
2023/04/29 05:14:33;;;;;;;0.50;0.50;;;;;;;9.40;92.71;99677.66;5046300;28;20267;-59
2023/04/29 05:17:00;;;;;;;0.50;0.50;;;;;;;9.42;93.09;99665.66;5049959;28;20244;-59
2023/04/29 05:19:26;;;;;;;0.50;0.50;;;;;;;9.51;92.63;99662.91;5049177;28;20227;-59
2023/04/29 05:21:54;;;;;;;0.50;0.50;;;;;;;9.65;92.34;99660.03;5049393;28;20274;-59
2023/04/29 05:24:21;;;;;;;0.40;0.40;;;;;;;9.68;92.71;99648.03;5049275;28;20201;-59
2023/04/29 05:26:50;;;;;;;0.50;0.50;;;;;;;9.89;92.75;99650.06;5046879;28;20205;-59
2023/04/29 05:29:17;;;;;;;0.40;0.40;;;;;;;9.92;91.69;99651.72;5047858;28;20634;-59
2023/04/29 05:31:44;;;;;;;0.70;0.70;;;;;;;9.90;91.30;99648.34;5050128;28;20209;-59
2023/04/29 05:34:14;;;;;;;0.70;0.70;;;;;;;9.99;91.94;99645.56;5049763;28;20201;-59
2023/04/29 05:36:40;;;;;;;0.60;0.60;;;;;;;9.98;91.31;99626.78;5047531;28;20228;-59
2023/04/29 05:39:08;;;;;;;0.50;0.50;;;;;;;10.16;89.88;99640.91;5048594;28;20201;-59
2023/04/29 05:41:35;;;;;;;0.80;0.80;;;;;;;10.26;90.15;99651.78;5048069;28;20224;-59
2023/04/29 05:44:01;;;;;;;0.50;0.50;;;;;;;10.30;91.27;99646.56;5047309;28;20201;-59
2023/04/29 05:46:28;;;;;;;0.50;0.50;;;;;;;10.50;92.94;99640.94;5045190;28;20273;-59
2023/04/29 05:48:55;;;;;;;0.57;0.57;;;;;;;10.80;94.02;99640.09;5044004;28;20251;-59
2023/04/29 05:51:22;;;;;;;0.50;0.50;;;;;;;11.13;92.57;99646.00;5044410;28;20451;-60
2023/04/29 05:53:48;;;;;;;0.83;0.83;;;;;;;11.51;86.91;99644.88;5048493;28;20684;-60
2023/04/29 05:56:17;;;;;;;0.60;0.60;;;;;;;11.90;87.14;99642.84;5048048;28;20205;-60
2023/04/29 05:58:44;;;;;;;0.67;0.67;;;;;;;12.22;81.78;99650.38;5047720;28;20205;-60
2023/04/29 06:01:11;;;;;;;0.70;0.70;;;;;;;12.66;79.48;99640.34;5049282;28;20678;-60
2023/04/29 06:03:38;;;;;;;0.63;0.63;;;;;;;12.99;77.56;99645.09;5045656;28;20251;-60
2023/04/29 06:06:04;;;;;;;0.50;0.50;;;;;;;13.26;79.65;99645.88;5047182;28;20196;-60
2023/04/29 06:08:31;;;;;;;0.60;0.60;;;;;;;13.41;77.80;99636.75;5048447;28;20626;-60
2023/04/29 06:10:58;;;;;;;0.50;0.50;;;;;;;13.65;78.81;99640.94;5048931;28;20196;-60
2023/04/29 06:13:26;;;;;;;0.40;0.40;;;;;;;13.96;75.89;99630.25;5049012;28;20218;-60
2023/04/29 06:15:53;;;;;;;0.50;0.50;;;;;;;14.30;71.96;99630.56;5049485;28;20623;-60
2023/04/29 06:18:20;;;;;;;0.60;0.60;;;;;;;14.49;70.51;99626.34;5049334;28;20565;-60
2023/04/29 06:20:46;;;;;;;0.53;0.53;;;;;;;14.63;71.56;99626.63;5049364;28;20292;-60
2023/04/29 06:23:13;;;;;;;0.50;0.50;;;;;;;14.68;66.72;99640.13;5049269;28;20207;-61
2023/04/29 06:25:40;;;;;;;0.57;0.57;;;;;;;14.87;65.35;99637.59;5049496;28;20212;-61
2023/04/29 06:28:07;;;;;;;0.50;0.50;;;;;;;15.09;64.84;99638.31;5049959;28;20272;-60
2023/04/29 06:30:35;;;;;;;0.50;0.50;;;;;;;15.37;63.22;99632.75;5049478;28;20727;-60
2023/04/29 06:33:02;;;;;;;0.50;0.50;;;;;;;15.65;63.59;99628.00;5049473;28;20200;-60
2023/04/29 06:35:28;;;;;;;0.40;0.40;;;;;;;15.68;63.28;99616.69;5048155;28;20204;-60
2023/04/29 06:37:56;;;;;;;0.60;0.60;;;;;;;16.08;63.72;99625.94;5048969;28;20200;-60
2023/04/29 06:40:22;;;;;;;0.60;0.60;;;;;;;16.33;57.97;99628.16;5053070;28;20193;-61
2023/04/29 06:42:51;;;;;;;0.57;0.57;;;;;;;16.50;58.59;99622.97;5052889;28;20221;-61
2023/04/29 06:45:17;;;;;;;0.40;0.40;;;;;;;16.57;57.85;99619.19;5053060;28;20588;-60
2023/04/29 06:47:45;;;;;;;0.60;0.60;;;;;;;16.69;57.85;99618.56;5053154;28;20205;-61
2023/04/29 06:50:12;;;;;;;0.50;0.50;;;;;;;16.82;59.46;99618.75;5052867;28;20726;-61
2023/04/29 06:52:39;;;;;;;0.50;0.50;;;;;;;16.84;53.51;99616.91;5052665;28;20204;-61
2023/04/29 06:55:07;;;;;;;0.60;0.60;;;;;;;16.95;56.74;99607.69;5053202;28;20201;-61
2023/04/29 06:57:33;;;;;;;0.50;0.50;;;;;;;16.94;58.43;99594.81;5052283;28;20946;-61
2023/04/29 07:00:00;;;;;;;0.50;0.50;;;;;;;17.21;52.52;99589.00;5050578;28;20196;-59
2023/04/29 07:02:27;;;;;;;0.50;0.50;;;;;;;17.41;51.35;99598.28;5052784;28;20617;-62
2023/04/29 07:04:55;;;;;;;0.40;0.40;;;;;;;17.45;49.98;99594.59;5052124;28;20293;-61
2023/04/29 07:07:22;;;;;;;0.47;0.47;;;;;;;17.53;49.00;99586.41;5052493;28;20200;-61
2023/04/29 07:09:50;;;;;;;0.50;0.50;;;;;;;17.75;50.55;99577.38;5052759;28;20201;-62
2023/04/29 07:12:17;;;;;;;0.40;0.40;;;;;;;18.08;47.76;99599.72;5052479;28;20207;-62
2023/04/29 07:14:43;;;;;;;0.50;0.50;;;;;;;18.29;47.67;99595.84;5052918;28;20200;-62
2023/04/29 07:17:10;;;;;;;0.57;0.57;;;;;;;18.50;48.23;99602.44;5052941;28;20259;-62
2023/04/29 07:19:37;;;;;;;0.50;0.50;;;;;;;18.54;45.52;99600.50;5052507;28;20282;-59
2023/04/29 07:22:05;;;;;;;0.50;0.50;;;;;;;18.57;46.00;99595.09;5052122;28;20267;-59
2023/04/29 07:24:31;;;;;;;0.40;0.40;;;;;;;18.22;44.33;99597.16;5051924;28;20197;-62
2023/04/29 07:26:58;;;;;;;0.40;0.40;;;;;;;18.17;45.94;99599.16;5048795;28;20706;-61
2023/04/29 07:29:25;;;;;;;0.53;0.53;;;;;;;18.35;47.92;99598.94;5052402;28;21755;-62
2023/04/29 07:31:52;;;;;;;0.43;0.43;;;;;;;18.60;45.60;99597.53;5052605;28;20194;-62
2023/04/29 07:34:19;;;;;;;0.50;0.50;;;;;;;18.68;44.25;99588.34;5052581;28;20204;-62
2023/04/29 07:36:45;;;;;;;0.43;0.43;;;;;;;18.83;45.49;99594.38;5051817;28;20200;-62
2023/04/29 07:39:14;;;;;;;0.40;0.40;;;;;;;18.83;44.71;99597.81;5052038;28;20278;-59
2023/04/29 07:41:41;;;;;;;0.50;0.50;;;;;;;18.77;45.01;99598.16;5052017;28;20309;-59
2023/04/29 07:44:07;;;;;;;0.40;0.40;;;;;;;18.78;43.85;99593.81;5048890;28;20206;-59
2023/04/29 07:46:34;;;;;;;0.50;0.50;;;;;;;18.91;45.01;99588.69;5052016;28;20210;-59
2023/04/29 07:49:01;;;;;;;0.53;0.53;;;;;;;19.11;44.24;99593.50;5051226;28;20213;-59
2023/04/29 07:51:28;;;;;;;0.70;0.70;;;;;;;19.03;45.15;99590.56;5051683;28;20256;-62
2023/04/29 07:53:55;;;;;;;0.50;0.50;;;;;;;18.57;44.29;99582.97;5051355;28;20206;-60
2023/04/29 07:56:23;;;;;;;0.40;0.40;;;;;;;18.57;45.28;99584.72;5049149;28;20248;-60
2023/04/29 07:58:49;;;;;;;0.50;0.50;;;;;;;18.84;46.14;99575.25;5052215;28;20660;-61
2023/04/29 08:01:16;;;;;;;0.50;0.50;;;;;;;19.11;47.95;99570.13;5051950;28;20259;-60
2023/04/29 08:03:43;;;;;;;0.43;0.43;;;;;;;19.13;44.54;99576.03;5051660;28;20221;-59
2023/04/29 08:06:10;;;;;;;0.50;0.50;;;;;;;19.03;44.26;99574.97;5051008;28;20219;-59
2023/04/29 08:08:37;;;;;;;0.50;0.50;;;;;;;18.99;46.88;99563.09;5051156;28;20199;-60
2023/04/29 08:11:05;;;;;;;0.40;0.40;;;;;;;18.49;45.72;99572.16;5049680;28;20754;-61
2023/04/29 08:13:33;;;;;;;0.60;0.60;;;;;;;18.56;46.23;99563.13;5050178;28;20201;-61
2023/04/29 08:15:59;;;;;;;0.50;0.50;;;;;;;18.60;47.03;99574.16;5049146;28;20588;-60
2023/04/29 08:18:26;;;;;;;0.40;0.40;;;;;;;18.83;46.92;99558.84;5051359;28;20668;-61
2023/04/29 08:20:53;;;;;;;0.50;0.50;;;;;;;19.14;48.52;99552.56;5051582;28;20204;-60
2023/04/29 08:23:20;;;;;;;0.60;0.60;;;;;;;19.57;46.51;99545.53;5051064;28;20271;-61
2023/04/29 08:25:46;;;;;;;0.43;0.43;;;;;;;19.42;44.48;99549.09;5051465;28;20253;-60
2023/04/29 08:28:13;;;;;;;0.50;0.50;;;;;;;19.45;44.91;99546.28;5051409;28;20257;-61
2023/04/29 08:30:41;;;;;;;0.40;0.40;;;;;;;19.84;47.15;99545.47;5051291;28;20205;-61
2023/04/29 08:33:08;;;;;;;0.43;0.43;;;;;;;19.76;44.63;99551.19;5051228;28;20617;-60
2023/04/29 08:35:37;;;;;;;0.83;0.83;;;;;;;19.44;45.69;99539.44;5051178;28;20210;-61
2023/04/29 08:38:05;;;;;;;0.93;0.87;;;;;;;18.97;45.58;99541.56;5050773;28;20211;-61
2023/04/29 08:40:34;;;;;;;0.57;0.57;;;;;;;19.15;50.14;99535.22;5050880;28;20292;-61
2023/04/29 08:43:01;;;;;;;0.40;0.40;;;;;;;19.23;45.54;99541.59;5050679;28;20261;-60
2023/04/29 08:45:33;;;;;;;0.40;0.40;;;;;;;19.31;45.51;99528.97;5050535;28;20255;-60
2023/04/29 08:48:02;;;;;;;0.30;0.30;;;;;;;19.25;46.05;99523.31;5050675;28;20237;-60
2023/04/29 08:50:30;;;;;;;0.50;0.50;;;;;;;19.44;45.52;99529.03;5050361;28;20251;-60
2023/04/29 08:52:56;;;;;;;0.43;0.43;;;;;;;19.04;44.53;99528.09;5050565;28;20202;-60
2023/04/29 08:55:23;;;;;;;0.40;0.40;;;;;;;19.24;48.02;99522.47;5050632;28;20206;-60
2023/04/29 08:57:52;;;;;;;0.40;0.40;;;;;;;19.03;45.88;99520.41;5050471;28;20626;-61
2023/04/29 09:00:19;;;;;;;0.30;0.30;;;;;;;19.31;44.63;99520.31;5050285;28;20207;-61
2023/04/29 09:02:51;;;;;;;0.53;0.53;;;;;;;19.53;46.01;99505.03;5050415;28;20781;-61
2023/04/29 09:05:19;;;;;;;0.30;0.30;;;;;;;19.80;45.08;99520.63;5050199;28;20295;-61
2023/04/29 09:07:47;;;;;;;0.40;0.40;;;;;;;19.90;47.42;99519.06;5050435;28;20199;-61
2023/04/29 09:10:16;;;;;;;0.40;0.40;;;;;;;19.85;44.62;99524.56;5046641;28;20501;-61
2023/04/29 09:12:42;;;;;;;0.50;0.50;;;;;;;19.76;43.51;99519.13;5045759;28;20600;-61
2023/04/29 09:15:10;;;;;;;0.40;0.40;;;;;;;19.88;43.47;99516.56;5049618;28;20755;-61
2023/04/29 09:17:42;;;;;;;0.40;0.40;;;;;;;19.53;43.15;99492.03;5046854;28;20687;-61
2023/04/29 09:20:36;;;;;;;0.40;0.40;;;;;;;19.78;43.54;99506.84;5047169;28;20207;-61
2023/04/29 09:23:04;;;;;;;0.40;0.40;;;;;;;19.85;44.26;99495.94;5012210;28;20214;-61
2023/04/29 09:25:31;;;;;;;0.50;0.50;;;;;;;20.12;43.82;99495.03;5047674;28;20273;-61
2023/04/29 09:27:58;;;;;;;0.30;0.30;;;;;;;20.32;42.78;99478.94;5048973;28;20207;-62
2023/04/29 09:30:25;;;;;;;0.40;0.40;;;;;;;20.46;43.40;99476.19;5047833;28;20249;-61
2023/04/29 09:33:06;;;;;;;0.40;0.40;;;;;;;20.52;43.01;99472.34;5049652;28;20210;-61
2023/04/29 09:35:33;;;;;;;0.60;0.60;;;;;;;20.45;41.99;99477.16;5046675;28;20243;-61
2023/04/29 09:38:20;;;;;;;0.40;0.40;;;;;;;20.59;42.67;99469.19;5045057;28;20200;-62
2023/04/29 09:40:47;;;;;;;0.50;0.50;;;;;;;20.47;41.17;99459.63;5044958;28;20293;-61
2023/04/29 09:43:17;;;;;;;0.40;0.40;;;;;;;20.48;40.87;99455.25;5047268;28;20248;-64
2023/04/29 09:45:46;;;;;;;0.50;0.50;;;;;;;20.44;41.06;99446.81;5047706;28;20354;-59
2023/04/29 09:48:13;;;;;;;0.50;0.50;;;;;;;20.66;42.44;99444.38;5044705;28;20204;-60
2023/04/29 09:50:42;;;;;;;0.43;0.43;;;;;;;20.78;44.07;99447.88;5048958;28;20207;-60
2023/04/29 09:53:11;;;;;;;0.40;0.40;;;;;;;20.82;40.54;99444.94;5046971;28;20667;-59
2023/04/29 09:55:58;;;;;;;0.50;0.50;;;;;;;20.75;41.32;99432.47;5049198;28;20208;-59
2023/04/29 09:58:29;;;;;;;0.50;0.50;;;;;;;20.52;42.56;99425.47;5049165;28;20755;-59
2023/04/29 10:00:59;;;;;;;0.30;0.30;;;;;;;20.77;42.73;99428.84;5049956;28;20726;-59
2023/04/29 10:03:28;;;;;;;0.70;0.70;;;;;;;20.72;41.18;99428.31;5048945;28;20261;-60
2023/04/29 10:05:55;;;;;;;0.40;0.40;;;;;;;20.98;39.91;99433.41;5045447;28;20212;-60
2023/04/29 10:08:22;;;;;;;0.57;0.57;;;;;;;21.34;41.00;99422.94;5049218;28;20274;-61
2023/04/29 10:10:56;;;;;;;0.40;0.40;;;;;;;21.34;40.79;99426.41;5045047;28;20205;-59
2023/04/29 10:13:24;;;;;;;0.40;0.40;;;;;;;21.35;39.64;99419.41;5042659;28;20200;-59
2023/04/29 10:16:02;;;;;;;0.40;0.40;;;;;;;21.27;38.33;99421.75;5046597;28;20212;-60
2023/04/29 10:18:35;;;;;;;0.40;0.40;;;;;;;21.28;37.18;99415.59;5041740;28;20262;-60
2023/04/29 10:21:03;;;;;;;0.50;0.50;;;;;;;21.25;36.93;99415.81;5046648;28;20660;-60
2023/04/29 10:23:31;;;;;;;0.50;0.50;;;;;;;21.15;42.38;99376.56;5050923;28;20216;-62
2023/04/29 10:26:01;;;;;;;0.33;0.33;;;;;;;21.48;38.29;99396.69;5051668;28;20679;-61
2023/04/29 10:28:31;;;;;;;0.30;0.30;;;;;;;21.56;35.28;99409.97;5048735;28;20251;-62
2023/04/29 10:30:59;;;;;;;0.40;0.40;;;;;;;21.72;37.64;99407.03;5050500;28;20210;-62
2023/04/29 10:33:27;;;;;;;0.63;0.63;;;;;;;21.92;36.70;99403.78;5048848;28;20211;-62
2023/04/29 10:35:56;;;;;;;0.40;0.40;;;;;;;22.06;38.23;99393.13;5049944;28;20197;-62
2023/04/29 10:38:29;;;;;;;0.47;0.47;;;;;;;21.98;36.76;99388.47;5051518;28;20285;-61
2023/04/29 10:41:02;;;;;;;0.50;0.50;;;;;;;21.56;36.25;99388.25;5051409;28;20700;-60
2023/04/29 10:43:30;;;;;;;0.30;0.30;;;;;;;21.54;36.89;99395.38;5049643;28;20234;-60
2023/04/29 10:46:17;;;;;;;0.60;0.60;;;;;;;21.40;36.53;99383.38;5051252;28;20211;-60
2023/04/29 10:48:44;;;;;;;0.40;0.40;;;;;;;21.29;36.02;99380.75;5032174;28;20292;-60
2023/04/29 10:51:11;;;;;;;0.70;0.70;;;;;;;21.02;36.15;99380.13;5050818;28;20262;-60
2023/04/29 10:53:58;;;;;;;0.40;0.40;;;;;;;20.93;36.64;99377.28;5050066;28;20377;-60
2023/04/29 10:56:38;;;;;;;0.50;0.50;;;;;;;21.09;35.86;99373.53;5050966;28;20205;-61
2023/04/29 10:59:05;;;;;;;0.53;0.53;;;;;;;21.01;35.64;99376.69;5051584;28;20284;-62
2023/04/29 11:01:49;;;;;;;0.40;0.40;;;;;;;21.27;36.85;99366.97;5052177;28;20197;-61
2023/04/29 11:04:17;;;;;;;0.40;0.40;;;;;;;21.61;40.50;99366.13;5049055;28;20220;-61
2023/04/29 11:06:51;;;;;;;0.50;0.50;;;;;;;21.92;41.22;99357.63;5051120;28;20196;-61
2023/04/29 11:09:22;;;;;;;0.40;0.40;;;;;;;22.20;37.70;99352.84;5051300;28;20212;-61
2023/04/29 11:12:02;;;;;;;0.50;0.50;;;;;;;22.23;38.65;99352.66;5051081;28;20204;-61
2023/04/29 11:14:36;;;;;;;0.40;0.40;;;;;;;22.32;36.93;99344.06;5047671;28;20200;-62
2023/04/29 11:17:05;;;;;;;0.40;0.40;;;;;;;22.21;36.72;99339.69;5050488;28;20648;-62
2023/04/29 11:19:33;;;;;;;0.47;0.47;;;;;;;22.16;37.37;99338.41;5050632;28;20644;-62
2023/04/29 11:22:14;;;;;;;0.40;0.40;;;;;;;22.31;33.52;99337.19;5048067;28;20201;-62
2023/04/29 11:24:56;;;;;;;0.40;0.40;;;;;;;22.39;38.30;99311.28;5046428;28;20626;-61
2023/04/29 11:27:26;;;;;;;0.47;0.47;;;;;;;22.66;34.74;99323.94;5050080;28;20197;-61
2023/04/29 11:29:57;;;;;;;0.77;0.77;;;;;;;22.46;34.64;99299.38;5051428;28;20255;-61
2023/04/29 11:32:24;;;;;;;0.50;0.50;;;;;;;22.59;35.63;99318.34;5048864;28;20204;-61
2023/04/29 11:34:51;;;;;;;0.40;0.40;;;;;;;22.43;36.10;99308.31;5048916;28;20258;-61
2023/04/29 11:37:23;;;;;;;0.30;0.30;;;;;;;22.61;36.65;99313.84;5049252;28;20204;-61
2023/04/29 11:39:51;;;;;;;0.27;0.27;;;;;;;22.73;36.23;99305.03;5047746;28;20208;-61
2023/04/29 11:42:22;;;;;;;0.40;0.40;;;;;;;22.91;37.34;99311.34;5044951;28;20297;-61